Terminal Aerodrome Forecast
Issued by NWS

Home | Current Version | Previous Version | Text Only | Print | Product List | Glossary Off
Versions: 1 2 3 4 5 6 7 8 9 10 11 12 13 14 15

164
FTUS43 KBIS 251926 AAA
TAFDIK
TAF AMD
KDIK 251926Z 2519/2618 34008KT P6SM BKN120
     FM260000 36006KT P6SM VCSH OVC090
     FM260500 10004KT P6SM -SHRA OVC045
     FM261200 30005KT P6SM VCSH OVC040=

USA.gov is the U.S. government's official web portal to all federal, state and local government web resources and services.